createdAt,value
2022-10-01T00:00:31.013Z,84.84
2022-10-01T00:03:34.356Z,85.10
2022-10-01T00:06:36.078Z,85.08
2022-10-01T00:09:37.854Z,84.41
2022-10-01T00:12:44.546Z,84.70
2022-10-01T00:15:47.047Z,84.89
2022-10-01T00:18:49.399Z,84.00
2022-10-01T00:21:51.093Z,84.37
2022-10-01T00:24:52.737Z,83.23
2022-10-01T00:27:54.513Z,83.88
2022-10-01T00:30:56.275Z,84.04
2022-10-01T00:34:00.357Z,84.84
2022-10-01T00:37:02.002Z,84.98
2022-10-01T00:40:07.850Z,84.88
2022-10-01T00:43:23.555Z,84.32
2022-10-01T00:46:33.607Z,84.38
2022-10-01T00:49:38.290Z,84.88
2022-10-01T00:52:41.847Z,83.76
2022-10-01T00:55:52.036Z,83.82
2022-10-01T00:58:54.380Z,83.97
2022-10-01T01:01:56.627Z,83.40
2022-10-01T01:04:59.319Z,83.93
2022-10-01T01:08:02.957Z,83.80
2022-10-01T01:11:32.136Z,84.15
2022-10-01T01:15:11.470Z,84.15
2022-10-01T01:18:17.872Z,83.49
2022-10-01T01:21:21.295Z,83.83
2022-10-01T01:24:41.588Z,83.86
2022-10-01T01:28:06.025Z,83.92
2022-10-01T01:31:14.450Z,82.54
2022-10-01T01:34:24.502Z,83.67
2022-10-01T01:37:31.926Z,82.90
2022-10-01T01:40:37.504Z,83.33
2022-10-01T01:43:44.755Z,83.10
2022-10-01T01:46:49.378Z,82.95
2022-10-01T01:49:52.856Z,81.67
2022-10-01T01:52:55.612Z,81.83
2022-10-01T01:56:00.289Z,81.94
2022-10-01T01:59:03.652Z,80.95
2022-10-01T02:02:07.713Z,81.88
2022-10-01T02:05:17.296Z,80.82
2022-10-01T02:08:37.520Z,80.68
2022-10-01T02:11:48.647Z,80.89
2022-10-01T02:15:18.085Z,81.80
2022-10-01T02:18:29.530Z,81.36
2022-10-01T02:21:42.014Z,81.33
2022-10-01T02:24:46.168Z,81.73
2022-10-01T02:27:53.704Z,81.23
2022-10-01T02:30:56.594Z,81.59
2022-10-01T02:34:01.245Z,80.65
2022-10-01T02:37:05.304Z,79.74
2022-10-01T02:40:15.831Z,79.78
2022-10-01T02:43:22.264Z,79.74
2022-10-01T02:46:30.619Z,79.83
2022-10-01T02:49:32.307Z,79.29
2022-10-01T02:52:41.582Z,79.11
2022-10-01T02:55:46.526Z,79.55
2022-10-01T02:58:48.962Z,78.77
2022-10-01T03:01:50.842Z,78.51
2022-10-01T03:04:52.533Z,79.48
2022-10-01T03:07:54.202Z,77.94
2022-10-01T03:10:55.928Z,77.76
2022-10-01T03:13:58.307Z,77.97
2022-10-01T03:17:00.057Z,77.26
2022-10-01T03:20:02.126Z,77.37
2022-10-01T03:23:03.725Z,77.90
2022-10-01T03:26:05.560Z,77.37
2022-10-01T03:29:07.200Z,76.55
2022-10-01T03:32:08.824Z,76.55
2022-10-01T03:35:10.535Z,75.83
2022-10-01T03:38:13.770Z,74.58
2022-10-01T03:41:15.447Z,74.79
2022-10-01T03:44:17.662Z,74.12
2022-10-01T03:47:19.277Z,75.11
2022-10-01T03:50:22.000Z,74.91
2022-10-01T03:53:24.583Z,72.78
2022-10-01T03:56:26.633Z,73.68
2022-10-01T03:59:29.614Z,73.28
2022-10-01T04:02:31.617Z,73.18
2022-10-01T04:05:33.323Z,73.73
2022-10-01T04:08:34.966Z,71.07
2022-10-01T04:11:37.236Z,71.80
2022-10-01T04:14:39.062Z,70.66
2022-10-01T04:17:45.130Z,70.50
2022-10-01T04:20:48.454Z,70.51
2022-10-01T04:23:50.603Z,70.68
2022-10-01T04:26:52.291Z,70.96
2022-10-01T04:29:53.873Z,70.21
2022-10-01T04:32:55.660Z,69.79
2022-10-01T04:35:57.415Z,70.14
2022-10-01T04:39:02.035Z,69.30
2022-10-01T04:42:04.301Z,69.33
2022-10-01T04:45:07.103Z,69.59
2022-10-01T04:48:08.770Z,69.84
2022-10-01T04:51:10.515Z,71.74
2022-10-01T04:54:12.139Z,72.00
2022-10-01T04:57:13.899Z,74.44
2022-10-01T05:00:18.848Z,75.97
2022-10-01T05:03:20.576Z,76.35
2022-10-01T05:06:22.282Z,78.45
2022-10-01T05:09:24.145Z,79.18
2022-10-01T05:12:26.060Z,80.53
2022-10-01T05:15:30.964Z,81.26
2022-10-01T05:18:32.689Z,81.56
2022-10-01T05:21:35.259Z,83.68
2022-10-01T05:24:37.122Z,83.45
2022-10-01T05:27:41.202Z,84.32
2022-10-01T05:30:43.052Z,83.28
2022-10-01T05:33:44.710Z,83.71
2022-10-01T05:36:46.280Z,83.86
2022-10-01T05:39:48.249Z,83.89
2022-10-01T05:42:50.124Z,85.85
2022-10-01T05:45:52.168Z,87.04
2022-10-01T05:48:53.816Z,86.71
2022-10-01T05:51:55.437Z,87.85
2022-10-01T05:54:57.414Z,87.45
2022-10-01T05:58:01.717Z,87.56
2022-10-01T06:01:04.911Z,86.38
2022-10-01T06:04:06.567Z,86.99
2022-10-01T06:07:08.822Z,89.67
2022-10-01T06:10:10.514Z,87.95
2022-10-01T06:13:17.799Z,87.94
2022-10-01T06:16:20.970Z,87.16
2022-10-01T06:19:22.813Z,87.18
2022-10-01T06:22:24.585Z,87.62
2022-10-01T06:25:29.832Z,89.00
2022-10-01T06:28:32.409Z,88.31
2022-10-01T06:31:34.379Z,84.49
2022-10-01T06:34:36.361Z,85.07
2022-10-01T06:37:38.795Z,85.85
2022-10-01T06:40:40.863Z,86.85
2022-10-01T06:43:42.506Z,85.46
2022-10-01T06:46:44.150Z,84.42
2022-10-01T06:49:47.746Z,83.29
2022-10-01T06:52:50.167Z,84.76
2022-10-01T06:55:51.869Z,84.66
2022-10-01T06:58:53.461Z,86.07
2022-10-01T07:01:56.541Z,86.82
2022-10-01T07:04:59.300Z,86.32
2022-10-01T07:08:01.282Z,87.12
2022-10-01T07:11:03.726Z,84.73
2022-10-01T07:14:05.310Z,86.69
2022-10-01T07:17:06.927Z,86.23
2022-10-01T07:20:09.080Z,85.35
2022-10-01T07:23:15.534Z,85.87
2022-10-01T07:26:17.311Z,87.43
2022-10-01T07:29:18.977Z,85.76
2022-10-01T07:32:21.127Z,85.98
2022-10-01T07:35:23.213Z,85.09
2022-10-01T07:38:24.911Z,84.93
2022-10-01T07:41:26.762Z,87.86
2022-10-01T07:44:29.470Z,86.82
2022-10-01T07:47:31.234Z,85.47
2022-10-01T07:50:33.574Z,85.44
2022-10-01T07:53:35.343Z,84.30
2022-10-01T07:56:37.071Z,84.25
2022-10-01T07:59:40.410Z,85.72
2022-10-01T08:02:47.652Z,84.69
2022-10-01T08:05:49.886Z,84.96
2022-10-01T08:08:51.538Z,84.98
2022-10-01T08:11:53.149Z,85.08
2022-10-01T08:14:55.342Z,83.83
2022-10-01T08:17:57.102Z,84.34
2022-10-01T08:21:02.521Z,84.80
2022-10-01T08:24:05.134Z,84.48
2022-10-01T08:27:06.893Z,82.61
2022-10-01T08:30:09.140Z,84.37
2022-10-01T08:33:12.953Z,84.57
2022-10-01T08:36:16.611Z,82.31
2022-10-01T08:39:20.871Z,83.94
2022-10-01T08:42:39.695Z,84.55
2022-10-01T08:45:55.396Z,85.73
2022-10-01T08:49:15.450Z,86.28
2022-10-01T08:52:30.929Z,86.96
2022-10-01T08:55:36.627Z,86.32
2022-10-01T08:58:45.806Z,87.16
2022-10-01T09:01:48.570Z,87.92
2022-10-01T09:05:25.149Z,86.16
2022-10-01T09:08:56.682Z,88.52
2022-10-01T09:12:31.297Z,87.59
2022-10-01T09:15:46.650Z,88.02
2022-10-01T09:19:24.140Z,86.50
2022-10-01T09:22:31.579Z,85.75
2022-10-01T09:25:35.923Z,90.06
2022-10-01T09:28:41.346Z,87.22
2022-10-01T09:31:50.338Z,88.94
2022-10-01T09:34:53.629Z,86.29
2022-10-01T09:38:00.249Z,85.94
2022-10-01T09:41:02.065Z,87.03
2022-10-01T09:44:03.949Z,85.71
2022-10-01T09:47:17.824Z,85.00
2022-10-01T09:50:41.055Z,84.78
2022-10-01T09:53:48.301Z,87.28
2022-10-01T09:57:14.106Z,88.72
2022-10-01T10:00:20.057Z,87.26
2022-10-01T10:03:30.876Z,87.58
2022-10-01T10:06:33.261Z,88.30
2022-10-01T10:09:36.141Z,86.93
2022-10-01T10:12:37.864Z,88.19
2022-10-01T10:15:58.840Z,87.28
2022-10-01T10:19:10.427Z,87.73
2022-10-01T10:22:32.600Z,86.91
2022-10-01T10:25:34.782Z,85.59
2022-10-01T10:28:44.247Z,85.54
2022-10-01T10:31:47.011Z,85.37
2022-10-01T10:34:49.311Z,85.89
2022-10-01T10:37:54.018Z,84.69
2022-10-01T10:40:55.957Z,84.23
2022-10-01T10:44:04.821Z,83.83
2022-10-01T10:47:10.277Z,83.36
2022-10-01T10:50:34.220Z,83.78
2022-10-01T10:53:45.547Z,83.83
2022-10-01T10:57:02.246Z,83.94
2022-10-01T11:00:18.460Z,82.67
2022-10-01T11:03:24.442Z,83.27
2022-10-01T11:06:26.495Z,83.70
2022-10-01T11:09:38.442Z,82.65
2022-10-01T11:12:40.090Z,82.85
2022-10-01T11:15:47.836Z,83.50
2022-10-01T11:19:05.657Z,84.29
2022-10-01T11:22:45.729Z,83.87
2022-10-01T11:26:24.380Z,83.15
2022-10-01T11:29:46.269Z,84.18
2022-10-01T11:33:03.688Z,83.49
2022-10-01T11:36:29.228Z,83.56
2022-10-01T11:39:33.720Z,84.72
2022-10-01T11:42:38.028Z,82.97
2022-10-01T11:45:49.163Z,82.89
2022-10-01T11:48:57.375Z,83.24
2022-10-01T11:52:20.317Z,83.00
2022-10-01T11:55:43.532Z,81.29
2022-10-01T11:58:59.265Z,81.77
2022-10-01T12:02:46.272Z,82.30
2022-10-01T12:05:49.426Z,81.73
2022-10-01T12:08:56.717Z,82.13
2022-10-01T12:12:10.388Z,81.89
2022-10-01T12:15:19.528Z,81.29
2022-10-01T12:19:05.560Z,81.49
2022-10-01T12:22:15.554Z,81.62
2022-10-01T12:25:19.576Z,81.13
2022-10-01T12:28:52.041Z,80.50
2022-10-01T12:32:11.637Z,80.86
2022-10-01T12:35:35.462Z,79.55
2022-10-01T12:38:51.990Z,78.73
2022-10-01T12:42:09.291Z,78.76
2022-10-01T12:45:14.072Z,78.22
2022-10-01T12:48:47.863Z,79.98
2022-10-01T12:51:59.217Z,78.93
2022-10-01T12:55:32.065Z,79.77
2022-10-01T12:59:06.217Z,80.45
2022-10-01T13:02:30.406Z,80.22
2022-10-01T13:06:05.035Z,80.79
2022-10-01T13:09:22.692Z,81.52
2022-10-01T13:12:28.787Z,81.56
2022-10-01T13:15:36.671Z,81.87
2022-10-01T13:19:03.260Z,82.68
2022-10-01T13:22:23.835Z,83.18
2022-10-01T13:25:50.394Z,83.03
2022-10-01T13:29:03.207Z,83.52
2022-10-01T13:32:33.289Z,82.15
2022-10-01T13:35:39.590Z,83.05
2022-10-01T13:38:43.821Z,82.72
2022-10-01T13:41:45.672Z,82.31
2022-10-01T13:44:54.284Z,82.58
2022-10-01T13:48:21.217Z,83.81
2022-10-01T13:51:37.112Z,83.67
2022-10-01T13:54:53.986Z,83.65
2022-10-01T13:58:04.970Z,83.72
2022-10-01T14:01:20.022Z,83.75
2022-10-01T14:04:38.654Z,84.11
2022-10-01T14:07:40.706Z,83.97
2022-10-01T14:11:31.483Z,84.83
2022-10-01T14:15:01.196Z,84.63
2022-10-01T14:18:18.918Z,85.09
2022-10-01T14:22:02.724Z,85.29
2022-10-01T14:25:43.477Z,85.19
2022-10-01T14:29:01.621Z,85.21
2022-10-01T14:32:16.429Z,85.86
2022-10-01T14:35:35.652Z,85.69
2022-10-01T14:38:37.410Z,86.38
2022-10-01T14:41:39.122Z,86.22
2022-10-01T14:44:43.797Z,86.34
2022-10-01T14:47:45.653Z,86.42
2022-10-01T14:50:54.166Z,86.40
2022-10-01T14:53:59.524Z,86.20
2022-10-01T14:57:03.395Z,86.31
2022-10-01T15:00:13.988Z,85.10
2022-10-01T15:03:15.837Z,85.23
2022-10-01T15:06:20.552Z,85.14
2022-10-01T15:09:22.256Z,84.68
2022-10-01T15:12:24.134Z,82.82
2022-10-01T15:15:33.766Z,82.65
2022-10-01T15:18:36.821Z,82.30
2022-10-01T15:21:54.614Z,82.88
2022-10-01T15:25:01.586Z,82.98
2022-10-01T15:28:25.123Z,81.56
2022-10-01T15:31:26.946Z,81.25
2022-10-01T15:34:29.525Z,81.15
2022-10-01T15:37:36.908Z,80.89
2022-10-01T15:40:40.471Z,80.47
2022-10-01T15:43:42.804Z,81.02
2022-10-01T15:46:44.559Z,80.73
2022-10-01T15:50:06.684Z,80.75
2022-10-01T15:53:19.611Z,80.01
2022-10-01T15:56:23.861Z,79.62
2022-10-01T15:59:25.877Z,79.14
2022-10-01T16:02:31.291Z,79.24
2022-10-01T16:05:45.202Z,78.43
2022-10-01T16:09:02.078Z,77.83
2022-10-01T16:12:21.010Z,77.65
2022-10-01T16:15:30.499Z,77.80
2022-10-01T16:18:37.482Z,78.41
2022-10-01T16:21:42.168Z,77.61
2022-10-01T16:24:46.731Z,78.55
2022-10-01T16:27:50.372Z,78.76
2022-10-01T16:30:52.279Z,78.17
2022-10-01T16:33:53.951Z,78.84
2022-10-01T16:36:55.595Z,78.64
2022-10-01T16:39:57.304Z,78.76
2022-10-01T16:43:00.641Z,79.13
2022-10-01T16:46:02.477Z,78.81
2022-10-01T16:49:11.271Z,78.78
2022-10-01T16:52:14.081Z,78.14
2022-10-01T16:55:29.803Z,77.94
2022-10-01T16:58:32.365Z,78.37
2022-10-01T17:01:34.083Z,77.70
2022-10-01T17:04:35.763Z,78.07
2022-10-01T17:07:37.322Z,77.96
2022-10-01T17:10:53.721Z,78.47
2022-10-01T17:13:55.756Z,78.60
2022-10-01T17:16:57.582Z,79.00
2022-10-01T17:19:59.351Z,79.14
2022-10-01T17:23:01.059Z,78.98
2022-10-01T17:26:08.835Z,78.69
2022-10-01T17:29:10.541Z,78.20
2022-10-01T17:32:12.390Z,77.73
2022-10-01T17:35:16.388Z,77.79
2022-10-01T17:38:19.356Z,77.69
2022-10-01T17:41:21.354Z,77.94
2022-10-01T17:44:23.041Z,78.11
2022-10-01T17:47:24.942Z,78.31
2022-10-01T17:50:26.979Z,79.05
2022-10-01T17:53:34.905Z,78.97
2022-10-01T17:56:41.987Z,79.14
2022-10-01T17:59:43.856Z,78.88
2022-10-01T18:02:46.755Z,79.37
2022-10-01T18:05:48.540Z,79.68
2022-10-01T18:08:55.731Z,79.74
2022-10-01T18:11:58.267Z,79.11
2022-10-01T18:15:01.083Z,78.73
2022-10-01T18:19:45.709Z,79.41
2022-10-01T18:21:24.729Z,78.64
2022-10-01T18:24:26.526Z,78.91
2022-10-01T18:27:28.147Z,79.35
2022-10-01T18:30:30.186Z,79.43
2022-10-01T18:33:31.966Z,79.55
2022-10-01T18:36:36.842Z,79.56
2022-10-01T18:39:44.692Z,78.66
2022-10-01T18:42:52.690Z,79.09
2022-10-01T18:46:09.327Z,79.06
2022-10-01T18:49:38.654Z,78.93
2022-10-01T18:52:58.469Z,79.78
2022-10-01T18:56:13.125Z,79.63
2022-10-01T18:59:43.346Z,80.20
2022-10-01T19:03:22.502Z,80.34
2022-10-01T19:06:34.429Z,80.42
2022-10-01T19:09:46.853Z,80.37
2022-10-01T19:13:06.101Z,80.73
2022-10-01T19:16:29.260Z,81.24
2022-10-01T19:19:52.295Z,81.22
2022-10-01T19:23:12.834Z,81.14
2022-10-01T19:26:31.046Z,80.21
2022-10-01T19:29:55.183Z,80.43
2022-10-01T19:33:02.032Z,80.40
2022-10-01T19:36:06.820Z,80.47
2022-10-01T19:39:14.834Z,80.29
2022-10-01T19:42:28.594Z,80.12
2022-10-01T19:45:42.443Z,79.85
2022-10-01T19:48:49.286Z,78.40
2022-10-01T19:52:01.058Z,77.79
2022-10-01T19:55:02.885Z,77.98
2022-10-01T19:58:18.261Z,77.91
2022-10-01T20:01:23.040Z,77.86
2022-10-01T20:04:34.323Z,78.05
2022-10-01T20:07:39.071Z,78.00
2022-10-01T20:11:02.444Z,77.60
2022-10-01T20:14:35.521Z,77.15
2022-10-01T20:18:14.634Z,77.06
2022-10-01T20:21:56.712Z,76.38
2022-10-01T20:25:08.482Z,76.73
2022-10-01T20:28:13.184Z,75.93
2022-10-01T20:31:33.158Z,76.12
2022-10-01T20:34:40.963Z,76.22
2022-10-01T20:38:00.442Z,76.23
2022-10-01T20:41:09.548Z,75.71
2022-10-01T20:44:15.445Z,75.96
2022-10-01T20:47:27.762Z,76.02
2022-10-01T20:50:38.713Z,75.92
2022-10-01T20:53:46.601Z,76.30
2022-10-01T20:57:15.798Z,75.79
2022-10-01T21:00:21.244Z,75.86
2022-10-01T21:03:36.193Z,75.31
2022-10-01T21:06:42.267Z,76.02
2022-10-01T21:09:48.851Z,76.05
2022-10-01T21:13:02.035Z,76.52
2022-10-01T21:16:45.552Z,76.70
2022-10-01T21:20:28.586Z,76.23
2022-10-01T21:24:07.449Z,76.00
2022-10-01T21:27:15.353Z,75.59
2022-10-01T21:30:19.343Z,75.70
2022-10-01T21:33:26.674Z,76.08
2022-10-01T21:36:38.494Z,75.99
2022-10-01T21:39:57.028Z,76.24
2022-10-01T21:43:10.159Z,75.92
2022-10-01T21:46:24.891Z,75.78
2022-10-01T21:49:44.419Z,75.94
2022-10-01T21:52:55.313Z,76.56
2022-10-01T21:56:18.534Z,76.86
2022-10-01T21:59:47.624Z,77.22
2022-10-01T22:03:14.134Z,76.71
2022-10-01T22:06:26.002Z,76.95
2022-10-01T22:09:59.317Z,76.92
2022-10-01T22:13:05.690Z,77.39
2022-10-01T22:16:10.968Z,77.66
2022-10-01T22:19:41.065Z,78.47
2022-10-01T22:22:43.582Z,77.95
2022-10-01T22:25:56.126Z,78.28
2022-10-01T22:29:01.940Z,78.65
2022-10-01T22:32:05.511Z,77.74
2022-10-01T22:35:16.459Z,78.64
2022-10-01T22:38:31.029Z,78.84
2022-10-01T22:41:40.293Z,78.62
2022-10-01T22:44:42.014Z,79.19
2022-10-01T22:47:52.120Z,78.92
2022-10-01T22:51:37.019Z,78.95
2022-10-01T22:55:04.569Z,78.91
2022-10-01T22:58:32.528Z,79.48
2022-10-01T23:02:00.568Z,78.83
2022-10-01T23:05:23.628Z,78.81
2022-10-01T23:08:48.291Z,79.16
2022-10-01T23:12:31.764Z,78.95
2022-10-01T23:15:58.278Z,78.90
2022-10-01T23:19:40.130Z,78.88
2022-10-01T23:23:06.808Z,79.34
2022-10-01T23:26:18.626Z,79.56
2022-10-01T23:29:44.907Z,79.68
2022-10-01T23:33:18.902Z,80.36
2022-10-01T23:36:32.588Z,80.31
2022-10-01T23:39:44.311Z,80.72
2022-10-01T23:42:56.685Z,80.47
2022-10-01T23:46:11.398Z,80.08
2022-10-01T23:49:16.339Z,80.65
2022-10-01T23:52:41.163Z,81.10
2022-10-01T23:56:08.185Z,81.21
2022-10-01T23:59:32.136Z,80.61
